createdAt,value
2018-12-23T00:01:22.407Z,26.50
2018-12-23T00:03:56.910Z,26.60
2018-12-23T00:06:31.354Z,27.40
2018-12-23T00:09:06.563Z,28.30
2018-12-23T00:11:41.010Z,28.50
2018-12-23T00:14:15.825Z,29.00
2018-12-23T00:16:50.230Z,29.20
2018-12-23T00:19:24.773Z,28.60
2018-12-23T00:21:59.614Z,28.90
2018-12-23T00:24:38.034Z,28.60
2018-12-23T00:27:12.507Z,27.00
2018-12-23T00:29:46.980Z,25.30
2018-12-23T00:32:21.376Z,24.80
2018-12-23T00:34:55.598Z,23.90
2018-12-23T00:37:29.817Z,23.90
2018-12-23T00:40:04.527Z,23.90
2018-12-23T00:42:39.040Z,23.90
2018-12-23T00:45:13.604Z,23.90
2018-12-23T00:47:48.031Z,23.90
2018-12-23T00:50:22.310Z,23.90
2018-12-23T00:52:56.629Z,23.90
2018-12-23T00:55:31.150Z,23.30
2018-12-23T00:58:05.530Z,23.30
2018-12-23T01:00:40.223Z,23.10
2018-12-23T01:03:15.122Z,23.20
2018-12-23T01:05:49.548Z,22.80
2018-12-23T01:08:24.138Z,22.70
2018-12-23T01:10:58.399Z,22.30
2018-12-23T01:13:33.409Z,22.60
2018-12-23T01:16:08.016Z,22.70
2018-12-23T01:18:43.438Z,22.70
2018-12-23T01:21:17.799Z,22.20
2018-12-23T01:23:52.198Z,22.50
2018-12-23T01:26:26.411Z,22.70
2018-12-23T01:29:00.791Z,22.80
2018-12-23T01:31:35.140Z,24.00
2018-12-23T01:34:10.443Z,24.00
2018-12-23T01:36:45.666Z,24.60
2018-12-23T01:39:20.171Z,24.40
2018-12-23T01:41:55.278Z,24.00
2018-12-23T01:44:29.587Z,24.80
2018-12-23T01:47:04.087Z,24.80
2018-12-23T01:49:38.485Z,25.00
2018-12-23T01:52:12.810Z,24.80
2018-12-23T01:54:47.201Z,24.90
2018-12-23T01:57:21.448Z,25.50
2018-12-23T01:59:55.870Z,24.00
2018-12-23T02:02:30.231Z,24.00
2018-12-23T02:05:04.770Z,23.40
2018-12-23T02:07:40.113Z,22.50
2018-12-23T02:10:14.487Z,22.30
2018-12-23T02:12:48.852Z,21.90
2018-12-23T02:15:23.352Z,21.40
2018-12-23T02:17:57.714Z,21.10
2018-12-23T02:20:32.142Z,21.30
2018-12-23T02:23:06.517Z,21.20
2018-12-23T02:25:40.986Z,20.70
2018-12-23T02:28:15.351Z,20.80
2018-12-23T02:30:50.389Z,21.20
2018-12-23T02:33:29.305Z,20.70
2018-12-23T02:36:04.916Z,20.00
2018-12-23T02:38:48.926Z,19.90
2018-12-23T02:41:31.867Z,19.60
2018-12-23T02:44:06.329Z,19.00
2018-12-23T02:46:41.327Z,19.00
2018-12-23T02:49:16.363Z,19.10
2018-12-23T02:51:51.629Z,19.20
2018-12-23T02:54:26.797Z,20.20
2018-12-23T02:57:02.071Z,20.50
2018-12-23T02:59:38.508Z,22.30
2018-12-23T03:02:22.128Z,23.70
2018-12-23T03:13:59.759Z,25.10
2018-12-23T03:19:51.862Z,24.10
2018-12-23T03:28:45.483Z,24.20
2018-12-23T03:34:28.064Z,22.40
2018-12-23T03:37:25.879Z,22.60
2018-12-23T03:43:17.383Z,22.50
2018-12-23T03:46:11.160Z,22.90
2018-12-23T03:48:56.323Z,23.20
2018-12-23T03:54:39.061Z,24.20
2018-12-23T04:00:19.368Z,24.60
2018-12-23T04:03:12.175Z,25.30
2018-12-23T04:06:06.639Z,25.20
2018-12-23T04:17:50.952Z,25.60
2018-12-23T04:23:40.450Z,25.50
2018-12-23T04:26:29.498Z,25.20
2018-12-23T04:29:14.833Z,25.70
2018-12-23T04:32:08.585Z,25.50
2018-12-23T04:35:03.223Z,25.90
2018-12-23T04:37:50.802Z,25.60
2018-12-23T04:40:34.835Z,25.40
2018-12-23T04:43:34.419Z,24.90
2018-12-23T05:53:35.583Z,19.10
2018-12-23T05:56:22.883Z,21.00
2018-12-23T05:59:03.753Z,22.40
2018-12-23T06:07:48.751Z,20.90
2018-12-23T06:13:39.243Z,16.90
2018-12-23T06:16:31.331Z,15.70
2018-12-23T06:19:23.701Z,14.80
2018-12-23T06:22:20.970Z,13.80
2018-12-23T06:28:06.578Z,12.60
2018-12-23T06:30:57.181Z,12.00
2018-12-23T06:40:02.994Z,10.20
2018-12-23T06:42:57.703Z,11.00
2018-12-23T06:48:59.570Z,12.60
2018-12-23T06:51:48.747Z,13.00
2018-12-23T07:00:39.583Z,15.40
2018-12-23T07:03:24.356Z,14.80
2018-12-23T07:06:06.094Z,15.10
2018-12-23T07:08:49.354Z,15.10
2018-12-23T07:11:45.122Z,15.20
2018-12-23T07:14:27.857Z,15.10
2018-12-23T07:17:09.582Z,15.60
2018-12-23T07:19:53.106Z,16.30
2018-12-23T07:22:38.299Z,16.80
2018-12-23T07:25:15.087Z,16.90
2018-12-23T07:27:54.509Z,17.70
2018-12-23T07:33:39.592Z,17.70
2018-12-23T07:36:20.842Z,17.90
2018-12-23T07:39:14.339Z,17.90
2018-12-23T07:42:09.496Z,19.10
2018-12-23T07:47:52.676Z,19.20
2018-12-23T07:50:44.739Z,19.20
2018-12-23T07:53:26.793Z,19.20
2018-12-23T07:56:01.755Z,19.20
2018-12-23T07:58:37.788Z,19.20
2018-12-23T08:01:18.086Z,19.10
2018-12-23T08:03:57.731Z,18.90
2018-12-23T08:15:55.948Z,17.90
2018-12-23T08:18:51.735Z,18.50
2018-12-23T08:21:42.931Z,19.20
2018-12-23T08:24:27.952Z,18.90
2018-12-23T08:27:03.323Z,18.90
2018-12-23T08:29:39.920Z,18.10
2018-12-23T08:32:16.169Z,17.90
2018-12-23T08:34:55.494Z,18.10
2018-12-23T08:37:31.058Z,17.30
2018-12-23T08:40:06.759Z,17.00
2018-12-23T08:42:41.566Z,17.00
2018-12-23T08:45:17.156Z,16.00
2018-12-23T08:47:53.405Z,14.90
2018-12-23T08:50:28.320Z,15.20
2018-12-23T08:53:02.822Z,14.50
2018-12-23T08:55:37.282Z,13.40
2018-12-23T08:58:12.136Z,12.70
2018-12-23T09:00:47.739Z,12.10
2018-12-23T09:03:24.150Z,11.70
2018-12-23T09:05:59.670Z,11.30
2018-12-23T09:08:36.029Z,11.50
2018-12-23T09:11:15.488Z,11.00
2018-12-23T09:13:55.645Z,10.80
2018-12-23T09:16:30.703Z,10.20
2018-12-23T09:19:05.464Z,9.70
2018-12-23T09:21:40.687Z,9.70
2018-12-23T09:24:17.101Z,9.70
2018-12-23T09:26:52.316Z,9.80
2018-12-23T09:29:27.566Z,9.60
2018-12-23T09:34:48.006Z,9.20
2018-12-23T09:37:22.264Z,8.90
2018-12-23T09:39:57.659Z,8.80
2018-12-23T09:42:33.255Z,8.80
2018-12-23T09:45:07.606Z,8.50
2018-12-23T09:47:48.976Z,8.70
2018-12-23T09:50:25.110Z,8.60
2018-12-23T09:53:03.618Z,8.10
2018-12-23T09:59:13.419Z,7.40
2018-12-23T10:05:03.870Z,6.90
2018-12-23T10:11:33.724Z,7.10
2018-12-23T10:20:38.358Z,6.10
2018-12-23T10:26:23.340Z,4.60
2018-12-23T10:32:32.712Z,2.30
2018-12-23T10:35:24.601Z,2.30
2018-12-23T10:40:59.804Z,2.40
2018-12-23T10:44:06.546Z,1.40
2018-12-23T10:47:11.381Z,1.90
2018-12-23T10:50:39.830Z,1.80
2018-12-23T10:53:49.190Z,1.00
2018-12-23T10:56:55.933Z,1.00
2018-12-23T11:00:04.954Z,1.00
2018-12-23T11:05:55.211Z,1.00
2018-12-23T11:11:50.094Z,1.00
2018-12-23T11:15:00.341Z,1.00
2018-12-23T11:17:48.968Z,1.00
2018-12-23T11:20:37.168Z,1.00
2018-12-23T11:23:26.555Z,1.00
2018-12-23T11:26:14.562Z,1.00
2018-12-23T11:29:23.611Z,1.00
2018-12-23T11:32:11.133Z,1.00
2018-12-23T11:34:58.898Z,1.00
2018-12-23T11:37:46.823Z,1.00
2018-12-23T11:40:34.657Z,1.00
2018-12-23T11:43:24.962Z,1.00
2018-12-23T11:46:13.824Z,1.00
2018-12-23T11:49:02.027Z,1.00
2018-12-23T11:51:52.251Z,1.00
2018-12-23T11:54:40.394Z,1.00
2018-12-23T11:57:27.804Z,1.00
2018-12-23T12:00:15.593Z,1.00
2018-12-23T12:03:03.998Z,1.00
2018-12-23T12:05:53.102Z,1.00
2018-12-23T12:08:43.875Z,1.00
2018-12-23T12:11:30.870Z,1.00
2018-12-23T12:14:26.587Z,1.00
2018-12-23T12:17:14.286Z,1.00
2018-12-23T12:20:02.123Z,1.00
2018-12-23T12:22:50.102Z,1.00
2018-12-23T12:25:39.653Z,1.60
2018-12-23T12:28:27.531Z,1.70
2018-12-23T12:31:16.860Z,2.30
2018-12-23T12:34:04.720Z,3.30
2018-12-23T12:37:10.125Z,3.40
2018-12-23T12:39:57.945Z,5.00
2018-12-23T12:42:45.755Z,4.60
2018-12-23T12:45:33.762Z,3.80
2018-12-23T12:48:21.231Z,3.60
2018-12-23T12:51:08.926Z,3.80
2018-12-23T12:53:57.504Z,3.90
2018-12-23T12:56:47.860Z,4.00
2018-12-23T12:59:35.899Z,5.90
2018-12-23T13:02:23.739Z,6.80
2018-12-23T13:05:12.216Z,8.90
2018-12-23T13:08:00.046Z,9.90
2018-12-23T13:10:47.872Z,10.20
2018-12-23T13:13:35.699Z,11.60
2018-12-23T13:16:25.891Z,11.50
2018-12-23T13:19:14.415Z,13.00
2018-12-23T13:22:02.215Z,12.10
2018-12-23T13:24:50.325Z,13.00
2018-12-23T13:27:37.983Z,13.60
2018-12-23T13:30:25.916Z,13.50
2018-12-23T13:33:14.929Z,13.50
2018-12-23T13:36:05.605Z,14.90
2018-12-23T13:38:54.764Z,15.50
2018-12-23T13:42:35.464Z,16.40
2018-12-23T13:45:59.126Z,17.30
2018-12-23T13:49:38.522Z,17.30
2018-12-23T13:52:47.619Z,18.60
2018-12-23T13:56:14.910Z,18.60
2018-12-23T13:59:46.407Z,19.00
2018-12-23T14:03:11.203Z,19.20
2018-12-23T14:06:46.940Z,19.80
2018-12-23T14:10:21.781Z,19.50
2018-12-23T14:13:09.328Z,19.90
2018-12-23T14:15:57.254Z,20.90
2018-12-23T14:18:45.051Z,20.80
2018-12-23T14:21:36.542Z,21.30
2018-12-23T14:24:24.663Z,23.00
2018-12-23T14:27:15.531Z,22.70
2018-12-23T14:30:03.576Z,23.50
2018-12-23T14:32:50.974Z,23.30
2018-12-23T14:35:38.608Z,23.40
2018-12-23T14:38:26.607Z,24.30
2018-12-23T14:41:17.457Z,24.30
2018-12-23T14:44:05.542Z,24.30
2018-12-23T14:46:53.167Z,25.30
2018-12-23T14:49:40.817Z,25.40
2018-12-23T14:52:29.230Z,25.90
2018-12-23T14:55:16.997Z,26.70
2018-12-23T14:58:04.693Z,27.20
2018-12-23T15:00:52.733Z,27.70
2018-12-23T15:03:40.489Z,28.20
2018-12-23T15:06:28.447Z,28.70
2018-12-23T15:09:16.528Z,28.90
2018-12-23T15:12:04.629Z,29.10
2018-12-23T15:14:52.159Z,30.00
2018-12-23T15:17:39.896Z,31.40
2018-12-23T15:20:28.231Z,31.30
2018-12-23T15:23:18.426Z,31.30
2018-12-23T15:26:06.138Z,31.30
2018-12-23T15:28:53.961Z,31.30
2018-12-23T15:31:41.311Z,31.20
2018-12-23T15:34:29.505Z,31.40
2018-12-23T15:37:17.685Z,32.30
2018-12-23T15:40:05.572Z,32.30
2018-12-23T15:42:53.788Z,32.00
2018-12-23T15:45:42.667Z,32.50
2018-12-23T15:48:30.640Z,32.90
2018-12-23T15:51:18.228Z,33.90
2018-12-23T15:54:05.773Z,33.90
2018-12-23T15:56:53.750Z,34.40
2018-12-23T15:59:42.322Z,34.80
2018-12-23T16:02:29.827Z,35.20
2018-12-23T16:05:18.028Z,35.70
2018-12-23T16:08:05.874Z,36.10
2018-12-23T16:10:54.139Z,36.40
2018-12-23T16:13:42.183Z,36.80
2018-12-23T16:16:31.262Z,37.20
2018-12-23T16:19:19.192Z,37.50
2018-12-23T16:22:07.371Z,37.80
2018-12-23T16:24:55.157Z,38.40
2018-12-23T16:27:42.625Z,38.60
2018-12-23T16:30:30.191Z,38.50
2018-12-23T16:33:18.158Z,38.80
2018-12-23T16:36:06.082Z,39.60
2018-12-23T16:38:54.039Z,39.20
2018-12-23T16:41:41.821Z,39.40
2018-12-23T16:44:29.754Z,39.90
2018-12-23T16:47:17.844Z,39.60
2018-12-23T16:50:06.503Z,39.30
2018-12-23T16:52:55.098Z,39.60
2018-12-23T16:55:43.513Z,39.60
2018-12-23T16:58:31.203Z,39.90
2018-12-23T17:01:20.652Z,39.40
2018-12-23T17:04:08.576Z,39.30
2018-12-23T17:06:56.432Z,39.10
2018-12-23T17:09:44.351Z,38.80
2018-12-23T17:12:32.284Z,39.30
2018-12-23T17:15:21.429Z,39.30
2018-12-23T17:18:11.358Z,39.80
2018-12-23T17:20:59.473Z,39.80
2018-12-23T17:23:47.424Z,39.80
2018-12-23T17:26:37.102Z,39.70
2018-12-23T17:29:24.720Z,39.70
2018-12-23T17:32:13.373Z,39.70
2018-12-23T17:35:02.851Z,39.70
2018-12-23T17:37:51.289Z,39.70
2018-12-23T17:40:39.756Z,39.90
2018-12-23T17:43:27.804Z,40.30
2018-12-23T17:46:16.249Z,40.20
2018-12-23T17:49:04.904Z,40.50
2018-12-23T17:51:52.822Z,40.40
2018-12-23T17:54:41.139Z,40.60
2018-12-23T17:57:29.743Z,40.90
2018-12-23T18:00:18.708Z,40.70
2018-12-23T18:03:06.776Z,40.70
2018-12-23T18:05:54.799Z,40.70
2018-12-23T18:08:43.259Z,40.60
2018-12-23T18:11:31.336Z,40.70
2018-12-23T18:14:19.074Z,40.80
2018-12-23T18:17:07.404Z,40.70
2018-12-23T18:19:55.727Z,40.30
2018-12-23T18:22:43.329Z,40.30
2018-12-23T18:25:31.437Z,40.70
2018-12-23T18:28:19.041Z,40.60
2018-12-23T18:31:07.151Z,41.00
2018-12-23T18:33:55.363Z,40.80
2018-12-23T18:36:43.563Z,41.20
2018-12-23T18:39:31.356Z,41.10
2018-12-23T18:42:18.943Z,41.30
2018-12-23T18:45:07.207Z,41.20
2018-12-23T18:47:55.223Z,41.30
2018-12-23T18:50:44.996Z,41.20
2018-12-23T18:53:32.944Z,40.90
2018-12-23T18:56:46.498Z,40.70
2018-12-23T18:59:34.835Z,40.80
2018-12-23T19:02:52.197Z,40.70
2018-12-23T19:05:40.543Z,40.50
2018-12-23T19:09:08.287Z,40.50
2018-12-23T19:12:41.109Z,39.50
2018-12-23T19:16:00.399Z,39.40
2018-12-23T19:19:30.810Z,39.40
2018-12-23T19:23:07.312Z,39.40
2018-12-23T19:26:48.334Z,39.40
2018-12-23T19:30:23.074Z,39.40
2018-12-23T19:33:55.220Z,39.40
2018-12-23T19:37:19.363Z,39.40
2018-12-23T19:40:56.156Z,39.40
2018-12-23T19:44:00.643Z,39.40
2018-12-23T19:47:24.777Z,39.40
2018-12-23T19:50:49.425Z,39.40
2018-12-23T19:53:59.353Z,39.50
2018-12-23T19:57:25.165Z,39.40
2018-12-23T20:00:44.386Z,39.40
2018-12-23T20:03:50.978Z,39.40
2018-12-23T20:07:18.733Z,37.90
2018-12-23T20:10:37.002Z,37.70
2018-12-23T20:13:48.009Z,37.00
2018-12-23T20:17:11.712Z,37.30
2018-12-23T20:20:46.044Z,37.50
2018-12-23T20:24:05.592Z,38.00
2018-12-23T20:27:26.845Z,38.80
2018-12-23T20:30:44.890Z,39.40
2018-12-23T20:34:16.893Z,39.30
2018-12-23T20:37:25.078Z,39.30
2018-12-23T20:41:15.339Z,39.30
2018-12-23T20:44:33.995Z,39.30
2018-12-23T20:47:48.545Z,39.20
2018-12-23T20:51:00.481Z,39.20
2018-12-23T20:54:31.865Z,39.20
2018-12-23T20:58:07.968Z,39.30
2018-12-23T21:01:35.336Z,39.20
2018-12-23T21:05:11.735Z,39.20
2018-12-23T21:08:24.140Z,39.10
2018-12-23T21:11:40.884Z,39.10
2018-12-23T21:14:55.393Z,39.00
2018-12-23T21:18:36.439Z,39.00
2018-12-23T21:22:04.463Z,39.00
2018-12-23T21:25:17.435Z,39.00
2018-12-23T21:28:48.206Z,39.10
2018-12-23T21:32:09.937Z,39.00
2018-12-23T21:35:20.190Z,39.40
2018-12-23T21:39:02.829Z,39.10
2018-12-23T21:42:14.121Z,39.00
2018-12-23T21:45:39.299Z,39.00
2018-12-23T21:49:07.060Z,39.00
2018-12-23T21:52:40.553Z,39.00
2018-12-23T21:56:24.562Z,39.20
2018-12-23T21:59:43.678Z,39.50
2018-12-23T22:03:00.363Z,40.00
2018-12-23T22:06:11.241Z,40.10
2018-12-23T22:09:22.546Z,40.10
2018-12-23T22:12:43.755Z,40.40
2018-12-23T22:15:31.250Z,40.70
2018-12-23T22:18:19.758Z,41.00
2018-12-23T22:21:07.776Z,41.30
2018-12-23T22:23:55.357Z,41.00
2018-12-23T22:26:43.060Z,41.20
2018-12-23T22:29:30.896Z,41.00
2018-12-23T22:32:19.093Z,41.10
2018-12-23T22:35:07.491Z,41.30
2018-12-23T22:37:56.021Z,41.20
2018-12-23T22:40:48.535Z,41.20
2018-12-23T22:43:37.273Z,41.30
2018-12-23T22:46:25.330Z,41.50
2018-12-23T22:49:15.688Z,41.40
2018-12-23T22:52:04.110Z,41.50
2018-12-23T22:54:51.932Z,41.60
2018-12-23T22:57:40.257Z,41.70
2018-12-23T23:00:31.369Z,41.80
2018-12-23T23:03:19.382Z,41.80
2018-12-23T23:06:17.930Z,41.80
2018-12-23T23:09:10.246Z,42.00
2018-12-23T23:11:59.308Z,42.00
2018-12-23T23:14:47.206Z,41.90
2018-12-23T23:17:36.133Z,42.00
2018-12-23T23:20:27.037Z,42.00
2018-12-23T23:23:17.891Z,41.90
2018-12-23T23:26:05.964Z,41.90
2018-12-23T23:28:58.757Z,42.00
2018-12-23T23:31:47.052Z,41.80
2018-12-23T23:34:35.245Z,41.90
2018-12-23T23:37:23.257Z,41.90
2018-12-23T23:40:11.441Z,41.70
2018-12-23T23:43:00.559Z,41.70
2018-12-23T23:45:48.795Z,41.90
2018-12-23T23:48:37.078Z,41.80
2018-12-23T23:51:30.391Z,41.60
2018-12-23T23:54:18.438Z,41.70
2018-12-23T23:57:06.410Z,41.40
2018-12-23T23:59:54.323Z,41.60
